createdAt,value
2023-02-07T00:02:15.968Z,35.45
2023-02-07T00:07:36.813Z,33.42
2023-02-07T00:12:57.805Z,34.65
2023-02-07T00:18:18.646Z,34.95
2023-02-07T00:23:39.408Z,35.92
2023-02-07T00:29:00.162Z,36.05
2023-02-07T00:34:20.934Z,32.55
2023-02-07T00:39:41.682Z,33.80
2023-02-07T00:45:02.365Z,33.38
2023-02-07T00:50:23.092Z,31.67
2023-02-07T00:55:44.969Z,40.17
2023-02-07T01:01:05.797Z,34.20
2023-02-07T01:06:28.003Z,38.22
2023-02-07T01:11:50.339Z,35.13
2023-02-07T01:17:12.661Z,33.97
2023-02-07T01:22:33.354Z,35.78
2023-02-07T01:27:54.177Z,38.60
2023-02-07T01:33:14.949Z,38.92
2023-02-07T01:38:35.881Z,34.03
2023-02-07T01:44:02.314Z,36.05
2023-02-07T01:49:31.188Z,34.42
2023-02-07T01:54:58.085Z,38.88
2023-02-07T02:00:19.244Z,33.95
2023-02-07T02:05:40.271Z,33.53
2023-02-07T02:11:17.199Z,35.30
2023-02-07T02:17:17.985Z,35.55
2023-02-07T02:22:50.670Z,31.38
2023-02-07T02:28:23.464Z,31.33
2023-02-07T02:34:15.157Z,36.20
2023-02-07T02:40:04.639Z,35.38
2023-02-07T02:45:31.954Z,34.28
2023-02-07T02:50:53.607Z,34.80
2023-02-07T02:56:28.537Z,34.70
2023-02-07T03:02:05.087Z,30.70
2023-02-07T03:07:38.466Z,36.55
2023-02-07T03:13:26.632Z,35.60
2023-02-07T03:18:59.601Z,37.75
2023-02-07T03:24:23.269Z,44.25
2023-02-07T03:29:46.914Z,41.53
2023-02-07T03:35:14.407Z,41.75
2023-02-07T03:40:46.178Z,36.42
2023-02-07T03:46:09.241Z,42.38
2023-02-07T03:51:30.283Z,42.83
2023-02-07T03:56:51.173Z,47.55
2023-02-07T04:02:12.134Z,45.08
2023-02-07T04:07:32.804Z,43.92
2023-02-07T04:12:53.988Z,42.45
2023-02-07T04:18:14.834Z,46.03
2023-02-07T04:23:35.567Z,44.15
2023-02-07T04:28:56.636Z,45.88
2023-02-07T04:34:17.548Z,43.15
2023-02-07T04:39:38.146Z,41.78
2023-02-07T04:44:58.923Z,43.78
2023-02-07T04:50:19.734Z,45.22
2023-02-07T04:55:40.688Z,39.95
2023-02-07T05:01:02.061Z,45.95
2023-02-07T05:06:22.799Z,43.75
2023-02-07T05:11:43.585Z,47.60
2023-02-07T05:17:05.559Z,44.88
2023-02-07T05:22:26.503Z,44.67
2023-02-07T05:27:47.185Z,53.63
2023-02-07T05:33:08.090Z,47.10
2023-02-07T05:38:28.885Z,56.33
2023-02-07T05:43:50.039Z,53.00
2023-02-07T05:49:10.923Z,47.38
2023-02-07T05:54:31.899Z,52.17
2023-02-07T05:59:52.717Z,54.65
2023-02-07T06:05:15.420Z,51.65
2023-02-07T06:10:36.717Z,53.60
2023-02-07T06:15:57.574Z,54.88
2023-02-07T06:21:18.315Z,57.38
2023-02-07T06:26:39.382Z,48.83
2023-02-07T06:32:00.185Z,58.50
2023-02-07T06:37:20.874Z,57.13
2023-02-07T06:42:41.524Z,55.67
2023-02-07T06:48:02.363Z,55.22
2023-02-07T06:53:23.068Z,51.70
2023-02-07T06:58:43.856Z,57.70
2023-02-07T07:04:04.480Z,47.03
2023-02-07T07:09:25.668Z,52.95
2023-02-07T07:14:46.639Z,55.55
2023-02-07T07:20:08.128Z,53.47
2023-02-07T07:25:29.053Z,53.15
2023-02-07T07:30:49.852Z,54.47
2023-02-07T07:36:10.677Z,54.10
2023-02-07T07:41:31.494Z,51.53
2023-02-07T07:46:53.069Z,52.40
2023-02-07T07:52:14.095Z,49.55
2023-02-07T07:57:35.036Z,49.30
2023-02-07T08:02:55.579Z,44.00
2023-02-07T08:08:16.768Z,49.83
2023-02-07T08:13:38.018Z,46.25
2023-02-07T08:18:59.238Z,46.88
2023-02-07T08:24:20.078Z,47.25
2023-02-07T08:29:40.823Z,41.95
2023-02-07T08:35:01.531Z,42.30
2023-02-07T08:40:22.873Z,44.60
2023-02-07T08:45:47.681Z,41.28
2023-02-07T08:51:09.184Z,39.10
2023-02-07T08:56:30.083Z,34.88
2023-02-07T09:01:51.363Z,33.55
2023-02-07T09:07:12.623Z,35.97
2023-02-07T09:12:34.254Z,30.33
2023-02-07T09:17:55.069Z,34.25
2023-02-07T09:23:19.609Z,33.92
2023-02-07T09:28:41.314Z,29.48
2023-02-07T09:34:03.119Z,32.00
2023-02-07T09:39:24.412Z,32.35
2023-02-07T09:44:57.569Z,27.20
2023-02-07T09:50:21.650Z,29.13
2023-02-07T09:55:47.153Z,29.52
2023-02-07T10:01:19.376Z,29.85
2023-02-07T10:06:41.247Z,32.95
2023-02-07T10:18:30.268Z,23.63
2023-02-07T10:24:09.443Z,21.38
2023-02-07T10:29:37.192Z,22.58
2023-02-07T10:35:02.175Z,24.73
2023-02-07T10:40:25.620Z,24.33
2023-02-07T10:45:51.899Z,25.15
2023-02-07T10:51:36.115Z,29.92
2023-02-07T10:57:02.575Z,32.47
2023-02-07T11:02:32.444Z,30.20
2023-02-07T11:08:22.974Z,27.67
2023-02-07T11:13:51.002Z,31.67
2023-02-07T11:19:17.643Z,31.58
2023-02-07T11:24:38.783Z,37.03
2023-02-07T11:30:00.920Z,31.58
2023-02-07T11:35:21.830Z,34.85
2023-02-07T11:40:42.334Z,33.40
2023-02-07T11:46:10.886Z,33.38
2023-02-07T11:51:32.720Z,36.88
2023-02-07T11:57:00.792Z,32.53
2023-02-07T12:02:25.270Z,32.90
2023-02-07T12:07:49.317Z,35.70
2023-02-07T12:13:37.932Z,36.55
2023-02-07T12:19:05.817Z,33.47
2023-02-07T12:24:29.125Z,36.53
2023-02-07T12:30:00.374Z,36.10
2023-02-07T12:35:51.983Z,43.60
2023-02-07T12:41:24.625Z,39.88
2023-02-07T12:46:58.974Z,45.80
2023-02-07T12:52:39.872Z,41.58
2023-02-07T12:58:25.807Z,41.28
2023-02-07T13:04:02.163Z,37.58
2023-02-07T13:10:01.258Z,38.88
2023-02-07T13:15:24.287Z,34.33
2023-02-07T13:20:48.461Z,34.53
2023-02-07T13:26:14.822Z,35.65
2023-02-07T13:32:01.808Z,34.67
2023-02-07T13:37:24.832Z,30.27
2023-02-07T13:43:11.217Z,34.63
2023-02-07T13:48:44.533Z,28.85
2023-02-07T13:54:31.182Z,27.65
2023-02-07T14:00:28.070Z,25.33
2023-02-07T14:05:50.044Z,26.33
2023-02-07T14:11:38.021Z,24.63
2023-02-07T14:16:59.963Z,27.27
2023-02-07T14:22:22.184Z,26.20
2023-02-07T14:28:03.845Z,24.02
2023-02-07T14:33:36.659Z,22.65
2023-02-07T14:39:27.279Z,27.50
2023-02-07T14:44:48.298Z,22.13
2023-02-07T14:50:09.601Z,20.77
2023-02-07T14:55:35.456Z,21.13
2023-02-07T15:00:58.610Z,19.95
2023-02-07T15:06:31.895Z,10.63
2023-02-07T15:12:05.819Z,14.60
2023-02-07T15:17:43.733Z,17.17
2023-02-07T15:23:07.465Z,17.92
2023-02-07T15:28:29.877Z,14.90
2023-02-07T15:33:58.677Z,15.25
2023-02-07T15:39:23.892Z,16.88
2023-02-07T15:44:52.482Z,18.02
2023-02-07T15:50:25.168Z,27.77
2023-02-07T15:55:47.615Z,16.42
2023-02-07T16:01:22.926Z,20.98
2023-02-07T16:07:03.207Z,21.13
2023-02-07T16:12:31.161Z,23.98
2023-02-07T16:17:52.238Z,38.03
2023-02-07T16:23:12.902Z,24.75
2023-02-07T16:28:33.750Z,24.70
2023-02-07T16:33:54.572Z,31.95
2023-02-07T16:39:15.680Z,25.08
2023-02-07T16:44:36.810Z,24.90
2023-02-07T16:49:59.128Z,28.17
2023-02-07T16:55:20.555Z,24.38
2023-02-07T17:00:41.614Z,33.85
2023-02-07T17:06:04.232Z,35.40
2023-02-07T17:11:26.335Z,37.90
2023-02-07T17:16:47.341Z,32.72
2023-02-07T17:22:08.337Z,33.30
2023-02-07T17:27:28.944Z,36.15
2023-02-07T17:32:49.820Z,35.92
2023-02-07T17:38:10.417Z,32.85
2023-02-07T17:43:34.390Z,34.27
2023-02-07T17:48:55.767Z,37.70
2023-02-07T17:54:16.640Z,32.47
2023-02-07T17:59:37.611Z,32.67
2023-02-07T18:04:59.020Z,33.33
2023-02-07T18:10:30.809Z,31.02
2023-02-07T18:15:51.736Z,31.05
2023-02-07T18:21:13.672Z,35.00
2023-02-07T18:26:34.876Z,32.30
2023-02-07T18:31:55.656Z,34.80
2023-02-07T18:37:16.588Z,33.88
2023-02-07T18:42:39.037Z,34.22
2023-02-07T18:47:59.957Z,36.25
2023-02-07T18:53:21.400Z,39.47
2023-02-07T18:58:42.394Z,44.97
2023-02-07T19:04:06.587Z,52.25
2023-02-07T19:09:27.681Z,53.50
2023-02-07T19:14:48.946Z,51.58
2023-02-07T19:20:10.574Z,49.35
2023-02-07T19:25:32.094Z,47.58
2023-02-07T19:30:53.019Z,51.15
2023-02-07T19:36:13.845Z,54.90
2023-02-07T19:41:35.428Z,54.10
2023-02-07T19:46:56.917Z,53.75
2023-02-07T19:52:23.664Z,55.03
2023-02-07T19:57:45.354Z,52.50
2023-02-07T20:03:06.180Z,56.22
2023-02-07T20:08:27.214Z,57.55
2023-02-07T20:13:50.488Z,56.97
2023-02-07T20:19:11.430Z,61.90
2023-02-07T20:24:32.474Z,55.20
2023-02-07T20:29:53.647Z,66.63
2023-02-07T20:35:15.012Z,67.45
2023-02-07T20:40:36.197Z,54.95
2023-02-07T20:46:08.216Z,52.67
2023-02-07T20:51:29.372Z,56.25
2023-02-07T20:56:54.020Z,53.60
2023-02-07T21:02:15.077Z,52.70
2023-02-07T21:07:35.742Z,54.42
2023-02-07T21:12:56.995Z,53.85
2023-02-07T21:18:18.013Z,59.50
2023-02-07T21:23:38.740Z,56.45
2023-02-07T21:29:00.455Z,60.58
2023-02-07T21:34:22.249Z,57.17
2023-02-07T21:39:43.549Z,57.42
2023-02-07T21:45:05.120Z,58.70
2023-02-07T21:50:26.267Z,58.92
2023-02-07T21:55:47.152Z,52.25
2023-02-07T22:01:18.752Z,60.70
2023-02-07T22:06:42.175Z,63.55
2023-02-07T22:12:03.168Z,56.67
2023-02-07T22:17:23.825Z,59.90
2023-02-07T22:22:44.629Z,56.40
2023-02-07T22:28:05.943Z,50.83
2023-02-07T22:33:26.643Z,54.63
2023-02-07T22:38:47.886Z,53.17
2023-02-07T22:44:10.829Z,49.60
2023-02-07T22:49:31.598Z,53.05
2023-02-07T22:54:52.312Z,57.00
2023-02-07T23:00:13.596Z,49.10
2023-02-07T23:05:37.586Z,57.58
2023-02-07T23:10:58.652Z,56.80
2023-02-07T23:16:21.188Z,52.38
2023-02-07T23:21:42.211Z,53.15
2023-02-07T23:27:03.392Z,52.55
2023-02-07T23:32:24.087Z,46.22
2023-02-07T23:37:44.892Z,47.38
2023-02-07T23:43:05.802Z,43.83
2023-02-07T23:48:26.813Z,49.65
2023-02-07T23:53:47.838Z,45.72
2023-02-07T23:59:09.797Z,47.80
